Time;durP1;ratioP1;P1;durP2;ratioP2;P2;SDS_P1;SDS_P2;PMS_P1;PMS_P2;Temp;Humidity;BMP_temperature;BMP_pressure;BME280_temperature;BME280_humidity;BME280_pressure;Samples;Min_cycle;Max_cycle;Signal;HPM_P1;HPM_P2
2023/10/24 00:01:40;;;;;;;6.75;3.40;;;12.70;99.90;;;;;;5121548;28;20165;-52
2023/10/24 00:04:06;;;;;;;5.95;3.50;;;12.80;99.90;;;;;;5088702;28;20523;-52
2023/10/24 00:06:55;;;;;;;10.88;3.85;;;12.80;99.90;;;;;;5121136;28;20231;-55
2023/10/24 00:09:39;;;;;;;9.23;4.00;;;12.80;99.90;;;;;;5088045;28;20268;-54
2023/10/24 00:12:19;;;;;;;3.38;2.92;;;12.90;99.90;;;;;;5121204;28;20187;-57
2023/10/24 00:15:06;;;;;;;7.90;3.38;;;12.90;99.90;;;;;;5121295;28;20165;-55
2023/10/24 00:18:43;;;;;;;5.32;3.47;;;12.80;99.90;;;;;;5087295;28;20169;-54
2023/10/24 00:21:18;;;;;;;7.55;2.95;;;12.80;99.90;;;;;;5085290;28;20192;-55
2023/10/24 00:23:56;;;;;;;6.82;3.40;;;12.80;99.90;;;;;;5086966;28;20178;-55
2023/10/24 00:26:55;;;;;;;11.45;3.42;;;12.80;99.90;;;;;;5087140;28;20173;-52
2023/10/24 00:29:28;;;;;;;3.85;2.95;;;12.80;99.90;;;;;;5088330;28;20537;-52
2023/10/24 00:31:57;;;;;;;6.03;3.35;;;12.80;99.90;;;;;;5087240;28;20242;-59
2023/10/24 00:34:38;;;;;;;5.22;3.08;;;12.80;99.90;;;;;;5120839;28;20169;-56
2023/10/24 00:37:25;;;;;;;8.20;3.15;;;12.70;99.90;;;;;;5120939;28;20636;-52
2023/10/24 00:40:19;;;;;;;6.50;3.80;;;12.70;99.90;;;;;;5087423;28;20192;-56
2023/10/24 00:42:59;;;;;;;9.32;3.05;;;12.70;99.90;;;;;;5120007;27;20170;-59
2023/10/24 00:45:52;;;;;;;6.05;3.05;;;12.70;99.90;;;;;;5121101;28;20173;-53
2023/10/24 00:48:28;;;;;;;5.47;3.45;;;12.70;99.90;;;;;;5086650;28;20312;-58
2023/10/24 00:50:59;;;;;;;6.82;3.08;;;12.60;99.90;;;;;;5086801;28;20539;-53
2023/10/24 00:53:46;;;;;;;9.10;3.80;;;12.60;99.90;;;;;;5121420;28;20636;-56
2023/10/24 00:56:26;;;;;;;5.93;3.20;;;12.70;99.90;;;;;;5086470;28;20549;-57
2023/10/24 00:58:53;;;;;;;4.05;2.60;;;12.70;99.90;;;;;;5116455;28;20595;-53
2023/10/24 01:01:31;;;;;;;4.70;3.03;;;12.60;99.90;;;;;;5074082;28;20174;-55
2023/10/24 01:04:03;;;;;;;7.13;3.03;;;12.60;99.90;;;;;;5107247;28;20698;-59
2023/10/24 01:06:42;;;;;;;5.15;2.60;;;12.70;99.90;;;;;;5074427;28;20275;-52
2023/10/24 01:09:17;;;;;;;4.93;2.50;;;12.60;99.90;;;;;;5106627;28;20192;-61
2023/10/24 01:11:59;;;;;;;3.67;2.40;;;12.70;99.90;;;;;;5073999;28;20868;-55
2023/10/24 01:14:49;;;;;;;2.92;2.45;;;12.70;99.90;;;;;;5074330;28;20528;-54
2023/10/24 01:17:18;;;;;;;4.97;3.55;;;12.60;99.90;;;;;;5073888;28;20174;-62
2023/10/24 01:19:50;;;;;;;11.00;2.67;;;12.60;99.90;;;;;;5073662;28;20173;-53
2023/10/24 01:25:12;;;;;;;7.65;2.70;;;12.70;99.90;;;;;;5073774;28;20707;-57
2023/10/24 01:28:05;;;;;;;4.70;2.05;;;12.70;99.90;;;;;;5073725;28;20190;-53
2023/10/24 01:30:39;;;;;;;5.15;2.60;;;12.60;99.90;;;;;;5073103;28;20182;-55
2023/10/24 01:33:22;;;;;;;6.95;2.40;;;12.70;99.90;;;;;;5073714;28;20493;-54
2023/10/24 01:36:27;;;;;;;3.45;2.50;;;12.70;99.90;;;;;;5073538;28;20170;-58
2023/10/24 01:39:35;;;;;;;3.53;2.20;;;12.70;99.90;;;;;;5073246;28;20186;-53
2023/10/24 01:42:27;;;;;;;4.18;1.95;;;12.70;99.90;;;;;;5072502;28;20256;-55
2023/10/24 01:45:21;;;;;;;4.30;2.17;;;12.70;99.90;;;;;;5073381;28;20173;-54
2023/10/24 01:47:53;;;;;;;7.35;1.80;;;12.70;99.90;;;;;;5072768;28;20225;-53
2023/10/24 01:50:25;;;;;;;8.90;2.70;;;12.70;99.90;;;;;;5073224;28;20189;-52
2023/10/24 01:53:08;;;;;;;4.25;2.20;;;12.70;99.90;;;;;;5073188;28;20174;-53
2023/10/24 01:55:39;;;;;;;4.82;1.88;;;12.70;99.90;;;;;;5073185;28;20170;-53
2023/10/24 01:58:14;;;;;;;4.70;2.08;;;12.70;99.90;;;;;;5071929;28;20166;-53
2023/10/24 02:00:43;;;;;;;6.05;2.92;;;12.70;99.90;;;;;;5072871;28;20169;-52
2023/10/24 02:03:19;;;;;;;6.88;3.65;;;12.80;99.90;;;;;;5105630;28;20644;-52
2023/10/24 02:05:52;;;;;;;11.10;4.78;;;12.80;99.90;;;;;;5072807;28;20170;-54
2023/10/24 02:08:41;;;;;;;;;;;;;;;;;;;;;
2023/10/24 02:11:09;;;;;;;7.03;3.83;;;12.90;99.90;;;;;;5071782;28;20166;-54
2023/10/24 02:14:02;;;;;;;4.82;2.65;;;12.80;99.90;;;;;;5072817;28;20245;-55
2023/10/24 02:16:46;;;;;;;8.23;3.00;;;12.80;99.90;;;;;;5073626;28;20190;-54
2023/10/24 02:19:34;;;;;;;8.30;2.28;;;14.50;99.90;;;;;;5072513;28;20592;-56
2023/10/24 02:22:03;;;;;;;9.15;2.60;;;13.00;99.90;;;;;;5072204;28;20200;-59
2023/10/24 02:24:42;;;;;;;5.10;4.43;;;13.00;99.90;;;;;;5072440;28;20190;-56
2023/10/24 02:27:28;;;;;;;10.13;5.95;;;12.90;99.90;;;;;;5072431;28;20189;-58
2023/10/24 02:30:10;;;;;;;8.88;5.65;;;12.90;99.90;;;;;;5071039;28;20547;-56
2023/10/24 02:33:00;;;;;;;6.07;2.92;;;13.00;99.90;;;;;;5072226;28;20205;-65
2023/10/24 02:35:45;;;;;;;4.82;2.75;;;12.90;99.90;;;;;;5061194;28;20645;-57
2023/10/24 02:38:42;;;;;;;4.65;2.63;;;12.90;99.90;;;;;;5106241;28;20172;-54
2023/10/24 02:41:17;;;;;;;3.13;1.95;;;12.90;99.90;;;;;;5104860;28;20170;-57
2023/10/24 02:44:20;;;;;;;;;;;;;;;;;;;;;
2023/10/24 02:46:50;;;;;;;5.28;2.85;;;13.00;99.90;;;;;;5071971;28;20617;-57
2023/10/24 02:49:30;;;;;;;7.22;2.90;;;13.00;99.90;;;;;;5104976;28;20178;-59
2023/10/24 02:52:02;;;;;;;9.68;3.17;;;13.00;99.90;;;;;;5105052;28;20169;-59
2023/10/24 02:55:03;;;;;;;4.95;1.88;;;13.00;99.90;;;;;;5072181;28;20253;-52
2023/10/24 02:57:37;;;;;;;1.58;1.30;;;13.00;99.90;;;;;;5070641;28;20185;-57
2023/10/24 03:00:12;;;;;;;1.90;1.20;;;13.00;99.90;;;;;;5071977;28;20170;-55
2023/10/24 03:03:04;;;;;;;2.22;1.42;;;13.00;99.90;;;;;;5104355;28;20184;-58
2023/10/24 03:05:33;;;;;;;1.67;1.30;;;12.90;99.90;;;;;;5071119;28;20179;-56
2023/10/24 03:08:07;;;;;;;4.43;1.30;;;12.90;99.90;;;;;;5071703;28;20281;-57
2023/10/24 03:10:48;;;;;;;1.38;1.10;;;12.90;99.90;;;;;;5071213;28;20685;-60
2023/10/24 03:13:46;;;;;;;1.48;1.10;;;12.90;99.90;;;;;;5104219;28;20170;-52
2023/10/24 03:16:25;;;;;;;1.55;1.13;;;12.80;99.90;;;;;;5050323;28;20180;-53
2023/10/24 03:18:59;;;;;;;3.22;1.33;;;12.80;99.90;;;;;;5104064;28;20173;-53
2023/10/24 03:21:47;;;;;;;4.10;1.33;;;12.90;99.90;;;;;;5072395;28;20567;-52
2023/10/24 03:24:35;;;;;;;2.47;1.02;;;12.80;99.90;;;;;;5104056;28;20185;-52
2023/10/24 03:27:11;;;;;;;3.35;1.35;;;12.80;99.90;;;;;;5103534;28;20182;-54
2023/10/24 03:30:15;;;;;;;2.28;1.30;;;12.80;99.90;;;;;;5070275;28;20264;-54
2023/10/24 03:33:02;;;;;;;1.42;1.10;;;12.70;99.90;;;;;;5067785;28;20173;-59
2023/10/24 03:35:29;;;;;;;2.47;1.42;;;12.80;99.90;;;;;;5104056;28;20189;-53
2023/10/24 03:38:09;;;;;;;2.47;1.55;;;12.80;99.90;;;;;;5071806;28;20186;-56
2023/10/24 03:41:19;;;;;;;1.77;1.25;;;12.70;99.90;;;;;;5070715;28;20189;-52
2023/10/24 03:44:11;;;;;;;2.00;1.30;;;12.80;99.90;;;;;;5070029;28;20238;-56
2023/10/24 03:46:46;;;;;;;2.38;1.20;;;12.70;99.90;;;;;;5103905;28;20260;-56
2023/10/24 03:49:43;;;;;;;2.15;1.30;;;12.70;99.90;;;;;;5071274;28;20217;-57
2023/10/24 03:52:22;;;;;;;3.53;1.27;;;12.70;99.90;;;;;;5070952;28;20180;-54
2023/10/24 03:54:48;;;;;;;2.53;1.30;;;12.70;99.90;;;;;;5071381;28;20236;-53
2023/10/24 03:57:24;;;;;;;3.88;1.33;;;12.70;99.90;;;;;;5071276;28;20682;-53
2023/10/24 04:00:00;;;;;;;1.83;1.40;;;12.70;99.90;;;;;;5070127;28;20166;-54
2023/10/24 04:02:38;;;;;;;3.17;1.95;;;12.70;99.90;;;;;;5102970;28;20173;-53
2023/10/24 04:05:09;;;;;;;3.45;1.20;;;12.60;99.90;;;;;;5071281;28;20162;-55
2023/10/24 04:07:47;;;;;;;5.50;1.40;;;12.70;99.90;;;;;;5103545;28;20216;-54
2023/10/24 04:10:53;;;;;;;4.63;1.40;;;12.70;99.90;;;;;;5103719;28;20318;-53
2023/10/24 04:13:42;;;;;;;2.30;1.27;;;12.60;99.90;;;;;;5071032;28;20177;-53
2023/10/24 04:16:21;;;;;;;2.90;1.10;;;12.60;99.90;;;;;;5103725;28;20166;-53
2023/10/24 04:19:31;;;;;;;3.20;1.40;;;12.70;99.90;;;;;;5069931;28;20544;-54
2023/10/24 04:22:16;;;;;;;3.47;1.80;;;12.70;99.90;;;;;;5070052;28;20240;-55
2023/10/24 04:24:52;;;;;;;9.07;3.13;;;12.70;99.90;;;;;;5062271;28;20288;-52
2023/10/24 04:27:24;;;;;;;5.38;2.40;;;12.70;99.90;;;;;;5070722;28;21078;-52
2023/10/24 04:29:51;;;;;;;5.32;1.83;;;12.70;99.90;;;;;;5070927;28;20185;-53
2023/10/24 04:32:40;;;;;;;2.00;1.30;;;12.70;99.90;;;;;;5070849;28;20304;-54
2023/10/24 04:35:07;;;;;;;9.93;2.65;;;12.60;99.90;;;;;;5057149;28;20220;-61
2023/10/24 04:37:35;;;;;;;5.65;2.92;;;12.70;99.90;;;;;;5074435;28;20621;-58
2023/10/24 04:40:07;;;;;;;6.18;3.60;;;12.70;99.90;;;;;;5107232;28;20195;-60
2023/10/24 04:43:06;;;;;;;;;;;;;;;;;;;;;
2023/10/24 04:45:38;;;;;;;4.78;2.63;;;12.80;99.90;;;;;;5074459;28;20170;-60
2023/10/24 04:48:10;;;;;;;8.38;2.60;;;12.70;99.90;;;;;;5106725;28;20275;-54
2023/10/24 04:50:45;;;;;;;4.32;2.03;;;12.70;99.90;;;;;;5073156;28;20166;-54
2023/10/24 04:53:32;;;;;;;4.93;2.08;;;12.70;99.90;;;;;;5074333;28;20170;-60
2023/10/24 04:55:59;;;;;;;8.50;2.67;;;12.80;99.90;;;;;;5074312;28;20174;-54
2023/10/24 04:58:35;;;;;;;6.97;2.20;;;12.80;99.90;;;;;;5074751;28;20200;-61
2023/10/24 05:01:03;;;;;;;2.50;1.70;;;12.70;99.90;;;;;;5106700;28;20242;-56
2023/10/24 05:03:29;;;;;;;0.80;0.70;;;12.70;99.90;;;;;;5073289;28;20593;-52
2023/10/24 05:05:55;;;;;;;0.95;0.85;;;12.60;99.90;;;;;;5074533;28;20244;-52
2023/10/24 05:08:20;;;;;;;1.10;1.00;;;12.60;99.90;;;;;;5074192;28;20206;-52
2023/10/24 05:10:49;;;;;;;2.92;0.88;;;12.60;99.90;;;;;;5074293;28;20173;-52
2023/10/24 05:13:15;;;;;;;1.25;1.10;;;12.60;99.90;;;;;;5074011;28;20516;-63
2023/10/24 05:15:41;;;;;;;2.60;2.00;;;12.50;99.90;;;;;;5074003;28;20162;-56
2023/10/24 05:18:09;;;;;;;7.22;1.25;;;12.50;99.90;;;;;;5074009;28;20244;-62
2023/10/24 05:20:35;;;;;;;2.65;1.33;;;12.50;99.90;;;;;;5074061;28;20226;-57
2023/10/24 05:23:01;;;;;;;4.00;1.00;;;12.50;99.90;;;;;;5073870;28;20162;-59
2023/10/24 05:25:26;;;;;;;1.45;1.23;;;12.50;99.90;;;;;;5074224;28;20166;-62
2023/10/24 05:27:52;;;;;;;0.90;0.90;;;12.50;99.90;;;;;;5073626;28;20206;-62
2023/10/24 05:30:17;;;;;;;1.63;1.15;;;12.50;99.90;;;;;;5073890;28;20204;-63
2023/10/24 05:32:43;;;;;;;1.58;1.10;;;12.50;99.90;;;;;;5073604;28;20163;-63
2023/10/24 05:35:09;;;;;;;1.38;1.27;;;12.50;99.90;;;;;;5073904;28;20174;-63
2023/10/24 05:37:35;;;;;;;1.45;1.33;;;12.50;99.90;;;;;;5073499;28;20169;-64
2023/10/24 05:40:00;;;;;;;1.25;1.13;;;12.50;99.90;;;;;;5073633;28;20170;-63
2023/10/24 05:42:26;;;;;;;1.77;1.23;;;12.50;99.90;;;;;;5074128;28;20502;-62
2023/10/24 05:44:51;;;;;;;2.70;1.35;;;12.50;99.90;;;;;;5073519;28;20169;-62
2023/10/24 05:47:17;;;;;;;1.92;1.20;;;12.50;99.90;;;;;;5073147;28;20248;-63
2023/10/24 05:49:43;;;;;;;2.13;1.08;;;12.50;99.90;;;;;;5073302;28;20651;-62
2023/10/24 05:52:08;;;;;;;3.97;1.70;;;12.50;99.90;;;;;;5073184;28;20170;-61
2023/10/24 05:54:36;;;;;;;4.05;1.50;;;12.50;99.90;;;;;;5073303;28;20178;-63
2023/10/24 05:57:01;;;;;;;5.30;1.40;;;12.50;99.90;;;;;;5073441;28;20231;-62
2023/10/24 05:59:27;;;;;;;3.33;1.27;;;12.50;99.90;;;;;;5073579;28;20170;-55
2023/10/24 06:01:53;;;;;;;2.78;1.48;;;12.50;99.90;;;;;;5073469;28;20158;-60
2023/10/24 06:04:18;;;;;;;3.40;0.95;;;12.50;99.90;;;;;;5073222;28;20201;-57
2023/10/24 06:06:44;;;;;;;3.25;1.20;;;12.50;99.90;;;;;;5072996;28;20221;-62
2023/10/24 06:09:12;;;;;;;2.78;1.20;;;12.50;99.90;;;;;;5073121;28;20210;-63
2023/10/24 06:11:38;;;;;;;3.25;1.30;;;12.60;99.90;;;;;;5073094;28;20257;-63
2023/10/24 06:14:04;;;;;;;5.07;1.20;;;12.50;99.90;;;;;;5105248;28;20174;-59
2023/10/24 06:16:29;;;;;;;2.67;1.10;;;12.50;99.90;;;;;;5072707;28;20173;-56
2023/10/24 06:18:55;;;;;;;2.53;1.13;;;12.50;99.90;;;;;;5073208;28;20782;-58
2023/10/24 06:21:20;;;;;;;5.35;1.10;;;12.50;99.90;;;;;;5072646;28;20170;-56
2023/10/24 06:23:46;;;;;;;2.25;1.00;;;12.50;99.90;;;;;;5072563;28;20170;-60
2023/10/24 06:26:16;;;;;;;0.93;0.90;;;12.60;99.90;;;;;;5072832;28;20257;-59
2023/10/24 06:28:42;;;;;;;4.72;1.08;;;12.60;99.90;;;;;;5072389;28;20276;-62
2023/10/24 06:31:08;;;;;;;1.02;0.90;;;12.60;99.90;;;;;;5072450;28;20172;-59
2023/10/24 06:33:34;;;;;;;1.27;1.00;;;12.60;99.90;;;;;;5072407;28;20166;-59
2023/10/24 06:36:00;;;;;;;4.45;1.05;;;12.60;99.90;;;;;;5072274;28;20162;-61
2023/10/24 06:38:26;;;;;;;1.90;1.27;;;12.60;99.90;;;;;;5072853;28;20166;-59
2023/10/24 06:40:51;;;;;;;2.72;1.70;;;12.60;99.90;;;;;;5072592;28;20573;-64
2023/10/24 06:43:18;;;;;;;4.78;1.77;;;12.60;99.90;;;;;;5072195;28;20209;-59
2023/10/24 06:45:45;;;;;;;4.43;1.40;;;12.60;99.90;;;;;;5072164;28;20170;-60
2023/10/24 06:48:11;;;;;;;1.58;0.90;;;12.70;99.90;;;;;;5071840;28;20214;-54
2023/10/24 06:50:40;;;;;;;1.20;1.10;;;12.70;99.90;;;;;;5072106;28;20261;-55
2023/10/24 06:53:07;;;;;;;3.33;1.17;;;12.70;99.90;;;;;;5072093;28;20177;-51
2023/10/24 06:55:33;;;;;;;3.78;1.25;;;12.70;99.90;;;;;;5072060;28;20682;-56
2023/10/24 06:57:58;;;;;;;2.17;0.90;;;12.70;99.90;;;;;;5071691;28;20170;-51
2023/10/24 07:00:25;;;;;;;1.30;1.20;;;12.60;99.90;;;;;;5072385;28;20154;-52
2023/10/24 07:02:51;;;;;;;3.20;0.80;;;12.70;99.90;;;;;;5072152;28;20177;-55
2023/10/24 07:05:18;;;;;;;1.83;1.02;;;12.70;99.90;;;;;;5072130;28;20162;-59
2023/10/24 07:07:43;;;;;;;1.83;0.98;;;12.70;99.90;;;;;;5071704;28;20257;-55
2023/10/24 07:10:09;;;;;;;1.13;1.00;;;12.70;99.90;;;;;;5071839;28;20181;-63
2023/10/24 07:12:35;;;;;;;6.30;1.20;;;12.70;99.90;;;;;;5071862;28;20166;-64
2023/10/24 07:15:03;;;;;;;4.30;1.23;;;12.70;99.90;;;;;;5071678;28;20174;-64
2023/10/24 07:17:29;;;;;;;2.65;1.10;;;12.70;99.90;;;;;;5071952;28;20200;-60
2023/10/24 07:19:55;;;;;;;2.53;1.17;;;12.70;99.90;;;;;;5071945;28;20629;-58
2023/10/24 07:22:21;;;;;;;5.53;1.45;;;12.80;99.90;;;;;;5071605;28;20679;-57
2023/10/24 07:24:47;;;;;;;4.82;1.50;;;12.70;99.90;;;;;;5071655;28;20170;-63
2023/10/24 07:27:12;;;;;;;7.07;1.27;;;12.70;99.90;;;;;;5071469;28;20590;-61
2023/10/24 07:29:38;;;;;;;2.70;1.10;;;12.70;99.90;;;;;;5071808;28;20683;-61
2023/10/24 07:32:04;;;;;;;2.03;1.08;;;12.70;99.90;;;;;;5071604;28;20158;-64
2023/10/24 07:34:33;;;;;;;2.13;0.90;;;12.70;99.90;;;;;;5071526;28;20532;-62
2023/10/24 07:36:59;;;;;;;4.22;1.30;;;12.70;99.90;;;;;;5071684;28;20174;-58
2023/10/24 07:39:24;;;;;;;4.95;1.05;;;12.80;99.90;;;;;;5072167;28;20166;-59
2023/10/24 07:41:50;;;;;;;5.72;1.30;;;12.70;99.90;;;;;;5071433;28;20169;-54
2023/10/24 07:44:16;;;;;;;3.72;1.25;;;12.70;99.90;;;;;;5076925;28;20249;-47
2023/10/24 07:46:41;;;;;;;1.10;1.00;;;12.70;99.90;;;;;;5089994;28;20185;-49
2023/10/24 07:49:07;;;;;;;1.67;1.17;;;12.70;99.90;;;;;;5089605;28;20691;-48
2023/10/24 07:51:33;;;;;;;6.28;1.40;;;12.70;99.90;;;;;;5089543;28;20648;-48
2023/10/24 07:53:58;;;;;;;3.85;1.40;;;12.80;99.90;;;;;;5089948;28;20173;-48
2023/10/24 07:56:24;;;;;;;2.30;0.90;;;12.80;99.90;;;;;;5090066;28;20173;-50
2023/10/24 07:58:50;;;;;;;1.40;1.30;;;12.80;99.90;;;;;;5089424;28;20248;-48
2023/10/24 08:01:18;;;;;;;2.33;1.05;;;12.80;99.90;;;;;;5089792;28;20169;-48
2023/10/24 08:03:44;;;;;;;3.10;1.52;;;12.80;99.90;;;;;;5089702;28;20184;-48
2023/10/24 08:06:10;;;;;;;2.85;1.55;;;12.90;99.90;;;;;;5089639;28;20157;-50
2023/10/24 08:08:35;;;;;;;3.35;2.00;;;12.90;99.90;;;;;;5089483;28;20219;-50
2023/10/24 08:11:01;;;;;;;3.15;1.90;;;13.00;99.90;;;;;;5092371;28;20580;-49
2023/10/24 08:13:27;;;;;;;3.38;1.92;;;13.00;99.90;;;;;;5093816;28;20221;-49
2023/10/24 08:15:53;;;;;;;6.00;2.47;;;13.00;99.90;;;;;;5094184;28;20176;-48
2023/10/24 08:18:18;;;;;;;7.22;2.53;;;13.10;99.90;;;;;;5093688;28;20633;-49
2023/10/24 08:20:44;;;;;;;7.85;2.55;;;13.10;99.90;;;;;;5093713;28;20165;-49
2023/10/24 08:23:10;;;;;;;5.10;2.00;;;13.20;99.90;;;;;;5093221;28;20205;-47
2023/10/24 08:25:35;;;;;;;5.68;2.00;;;13.20;99.90;;;;;;5093118;28;20230;-47
2023/10/24 08:28:01;;;;;;;7.53;2.50;;;13.30;99.90;;;;;;5093972;28;20233;-48
2023/10/24 08:30:28;;;;;;;5.22;2.17;;;13.30;99.90;;;;;;5094714;28;20188;-50
2023/10/24 08:32:54;;;;;;;6.82;2.22;;;13.40;99.90;;;;;;5094121;28;20173;-52
2023/10/24 08:35:19;;;;;;;4.70;2.10;;;13.40;99.90;;;;;;5092683;28;20346;-51
2023/10/24 08:37:45;;;;;;;5.28;2.38;;;13.40;99.90;;;;;;5092979;28;20204;-55
2023/10/24 08:40:11;;;;;;;6.20;2.33;;;13.40;99.90;;;;;;5093134;28;20192;-51
2023/10/24 08:42:37;;;;;;;5.78;2.20;;;13.50;99.90;;;;;;5092846;28;20162;-48
2023/10/24 08:45:04;;;;;;;1.75;1.48;;;13.50;99.90;;;;;;5093054;28;20165;-53
2023/10/24 08:47:32;;;;;;;3.80;1.58;;;13.50;99.90;;;;;;5092606;28;20264;-50
2023/10/24 08:50:00;;;;;;;2.25;1.58;;;13.50;99.90;;;;;;5092827;28;20193;-54
2023/10/24 08:52:27;;;;;;;2.28;1.63;;;13.60;99.90;;;;;;5093331;28;20490;-57
2023/10/24 08:54:54;;;;;;;2.38;1.65;;;13.60;99.90;;;;;;5094042;28;20173;-70
2023/10/24 08:57:27;;;;;;;3.33;2.22;;;13.60;99.90;;;;;;5094577;28;20170;-69
2023/10/24 08:59:55;;;;;;;2.38;1.80;;;13.70;99.90;;;;;;5094957;28;20566;-55
2023/10/24 09:02:21;;;;;;;6.30;1.70;;;13.70;99.90;;;;;;5094457;28;20230;-64
2023/10/24 09:04:49;;;;;;;3.95;2.10;;;13.70;99.90;;;;;;5094464;28;20177;-65
2023/10/24 09:07:15;;;;;;;2.90;1.98;;;13.80;99.90;;;;;;5094233;28;20174;-66
2023/10/24 09:09:40;;;;;;;6.18;1.85;;;13.80;99.90;;;;;;5094405;28;20181;-66
2023/10/24 09:12:08;;;;;;;2.55;1.60;;;13.90;99.90;;;;;;5093002;28;20176;-63
2023/10/24 09:14:33;;;;;;;2.58;1.67;;;14.00;99.90;;;;;;5094295;28;20169;-69
2023/10/24 09:17:01;;;;;;;2.88;1.50;;;13.80;99.90;;;;;;5094254;28;20173;-70
2023/10/24 09:19:27;;;;;;;3.17;1.83;;;13.80;99.90;;;;;;5094512;28;20165;-69
2023/10/24 09:21:56;;;;;;;4.03;1.65;;;13.70;99.90;;;;;;5094303;28;20621;-54
2023/10/24 09:24:22;;;;;;;6.13;2.13;;;13.70;99.90;;;;;;5093979;28;20624;-49
2023/10/24 09:26:55;;;;;;;2.97;2.30;;;13.70;99.90;;;;;;5094012;28;20173;-56
2023/10/24 09:29:21;;;;;;;4.57;2.60;;;13.80;99.90;;;;;;5093881;28;20220;-51
2023/10/24 09:31:48;;;;;;;7.43;2.70;;;13.80;99.90;;;;;;5094143;28;20169;-53
2023/10/24 09:34:17;;;;;;;8.70;2.92;;;13.70;99.90;;;;;;5094149;28;20172;-47
2023/10/24 09:36:44;;;;;;;5.57;2.28;;;13.70;99.90;;;;;;5094131;28;20216;-47
2023/10/24 09:39:13;;;;;;;4.97;2.05;;;13.90;99.90;;;;;;5093852;28;20662;-47
2023/10/24 09:41:43;;;;;;;4.70;2.25;;;13.90;99.90;;;;;;5093748;28;20169;-49
2023/10/24 09:44:10;;;;;;;2.67;1.70;;;14.10;99.90;;;;;;5093598;28;20177;-48
2023/10/24 09:46:37;;;;;;;5.88;2.35;;;14.10;99.90;;;;;;5093738;28;20180;-47
2023/10/24 09:49:04;;;;;;;1.98;1.30;;;14.20;99.90;;;;;;5093431;28;20221;-47
2023/10/24 09:51:31;;;;;;;3.20;1.90;;;14.20;99.90;;;;;;5093849;28;20172;-47
2023/10/24 09:53:58;;;;;;;10.43;2.83;;;14.20;99.90;;;;;;5093568;28;20173;-49
2023/10/24 09:56:25;;;;;;;5.97;1.85;;;14.30;99.90;;;;;;5094045;28;20291;-48
2023/10/24 09:58:52;;;;;;;4.63;1.85;;;14.40;99.90;;;;;;5093424;28;20306;-48
2023/10/24 10:01:18;;;;;;;7.10;5.07;;;14.40;99.90;;;;;;5093388;28;20166;-47
2023/10/24 10:03:44;;;;;;;3.22;1.60;;;14.50;99.90;;;;;;5075109;28;20611;-47
2023/10/24 10:06:13;;;;;;;3.00;1.30;;;14.60;99.90;;;;;;5093253;28;20164;-47
2023/10/24 10:08:40;;;;;;;2.75;1.33;;;14.70;99.90;;;;;;5093413;28;20220;-48
2023/10/24 10:11:06;;;;;;;3.80;1.48;;;14.70;99.90;;;;;;5093227;28;20164;-48
2023/10/24 10:14:07;;;;;;;9.18;6.30;;;14.80;99.90;;;;;;5093361;28;20538;-48
2023/10/24 10:17:06;;;;;;;2.63;1.08;;;14.80;99.90;;;;;;5069313;28;20260;-47
2023/10/24 10:19:46;;;;;;;4.57;1.23;;;14.80;99.90;;;;;;5093055;28;20169;-48
2023/10/24 10:22:47;;;;;;;1.65;1.05;;;15.00;99.90;;;;;;5092969;28;20175;-50
2023/10/24 10:26:01;;;;;;;4.20;1.80;;;15.10;99.90;;;;;;5093161;28;20169;-51
2023/10/24 10:28:53;;;;;;;6.88;4.93;;;15.20;99.90;;;;;;5092772;28;20660;-52
2023/10/24 10:31:41;;;;;;;1.73;1.40;;;15.30;99.90;;;;;;5090989;28;20197;-48
2023/10/24 10:34:06;;;;;;;1.70;1.60;;;15.30;99.90;;;;;;5092806;28;20653;-48
2023/10/24 10:36:32;;;;;;;1.83;1.42;;;15.10;99.90;;;;;;5092677;28;20247;-48
2023/10/24 10:39:05;;;;;;;3.50;1.50;;;15.10;99.90;;;;;;5092553;28;20166;-47
2023/10/24 10:41:32;;;;;;;2.55;1.15;;;15.00;99.90;;;;;;5092506;28;20644;-61
2023/10/24 10:44:00;;;;;;;2.67;1.45;;;15.00;99.90;;;;;;5092556;28;20197;-48
2023/10/24 10:46:27;;;;;;;4.13;1.58;;;14.90;99.90;;;;;;5093031;28;20534;-48
2023/10/24 10:48:58;;;;;;;1.30;1.20;;;14.90;99.90;;;;;;5092476;28;20771;-48
2023/10/24 10:51:31;;;;;;;1.90;1.65;;;14.90;99.90;;;;;;5092773;28;20725;-50
2023/10/24 10:54:21;;;;;;;1.75;1.30;;;14.80;99.90;;;;;;5092329;28;20201;-53
2023/10/24 10:56:48;;;;;;;1.85;1.30;;;14.70;99.90;;;;;;5092191;28;20708;-50
2023/10/24 10:59:33;;;;;;;2.08;1.20;;;14.70;99.90;;;;;;5092157;28;20208;-63
2023/10/24 11:02:08;;;;;;;3.72;1.20;;;14.70;99.90;;;;;;5092298;28;20161;-67
2023/10/24 11:04:35;;;;;;;2.65;1.27;;;14.70;99.90;;;;;;5092209;28;20169;-53
2023/10/24 11:07:03;;;;;;;1.85;1.05;;;14.70;99.90;;;;;;5092135;28;20160;-61
2023/10/24 11:09:37;;;;;;;3.35;1.20;;;14.60;99.90;;;;;;5092251;28;20288;-51
2023/10/24 11:12:21;;;;;;;3.38;1.05;;;14.60;99.90;;;;;;5092279;28;20199;-49
2023/10/24 11:15:16;;;;;;;1.75;1.30;;;14.60;99.90;;;;;;5092001;28;20165;-48
2023/10/24 11:17:43;;;;;;;1.25;1.13;;;14.50;99.90;;;;;;5092201;28;20169;-48
2023/10/24 11:20:10;;;;;;;3.20;1.45;;;14.50;99.90;;;;;;5091829;28;20643;-54
2023/10/24 11:22:36;;;;;;;3.15;1.67;;;14.40;99.90;;;;;;5091887;28;20524;-49
2023/10/24 11:25:12;;;;;;;1.67;1.40;;;14.30;99.90;;;;;;5091722;28;20165;-49
2023/10/24 11:27:43;;;;;;;1.90;1.50;;;14.30;99.90;;;;;;5091776;28;20564;-53
2023/10/24 11:30:09;;;;;;;1.50;1.40;;;14.30;99.90;;;;;;5092030;28;20172;-48
2023/10/24 11:32:35;;;;;;;6.68;1.55;;;14.30;99.90;;;;;;5091709;28;20685;-51
2023/10/24 11:35:02;;;;;;;1.75;1.40;;;14.10;99.90;;;;;;5091704;28;20173;-50
2023/10/24 11:37:28;;;;;;;3.90;2.10;;;14.00;99.90;;;;;;5091621;28;20162;-59
2023/10/24 11:39:53;;;;;;;11.00;4.03;;;14.00;99.90;;;;;;5092208;28;20252;-48
2023/10/24 11:42:19;;;;;;;8.95;4.53;;;14.00;99.90;;;;;;5091609;28;20244;-49
2023/10/24 11:44:44;;;;;;;8.00;3.60;;;14.00;99.90;;;;;;5091428;28;20177;-48
2023/10/24 11:47:16;;;;;;;5.80;3.67;;;13.80;99.90;;;;;;5091281;28;20209;-57
2023/10/24 11:49:45;;;;;;;2.88;1.90;;;13.70;99.90;;;;;;5091612;28;20180;-57
2023/10/24 11:52:10;;;;;;;4.93;2.70;;;13.60;99.90;;;;;;5091506;28;20207;-50
2023/10/24 11:54:37;;;;;;;5.70;4.47;;;13.50;99.90;;;;;;5091517;28;20169;-48
2023/10/24 11:57:05;;;;;;;7.97;4.50;;;13.50;99.90;;;;;;5091713;28;20173;-50
2023/10/24 11:59:35;;;;;;;5.53;3.72;;;13.40;99.90;;;;;;5091682;28;20166;-55
2023/10/24 12:02:01;;;;;;;8.38;4.78;;;13.40;99.90;;;;;;5091357;28;20173;-65
2023/10/24 12:04:27;;;;;;;7.13;4.25;;;13.40;99.90;;;;;;5091409;28;20643;-65
2023/10/24 12:07:08;;;;;;;7.65;4.47;;;13.40;99.90;;;;;;5091824;28;20207;-68
2023/10/24 12:09:36;;;;;;;7.65;5.25;;;13.30;99.90;;;;;;5090391;28;20216;-62
2023/10/24 12:12:05;;;;;;;7.95;5.28;;;13.30;99.90;;;;;;5091469;28;20177;-66
2023/10/24 12:14:32;;;;;;;4.82;3.28;;;13.20;99.90;;;;;;5091404;28;20161;-52
2023/10/24 12:16:58;;;;;;;4.18;1.92;;;13.20;99.90;;;;;;5091231;28;20284;-63
2023/10/24 12:19:24;;;;;;;1.40;1.23;;;13.10;99.90;;;;;;5092129;28;20201;-54
2023/10/24 12:21:49;;;;;;;3.58;1.60;;;13.00;99.90;;;;;;5091597;28;20166;-70
2023/10/24 12:24:15;;;;;;;2.55;1.50;;;13.00;99.90;;;;;;5091210;28;20189;-71
2023/10/24 12:26:41;;;;;;;2.53;1.40;;;13.00;99.90;;;;;;5091119;28;20176;-61
2023/10/24 12:29:10;;;;;;;1.55;1.20;;;13.00;99.90;;;;;;5091058;28;20231;-71
2023/10/24 12:31:36;;;;;;;3.08;1.40;;;13.10;99.90;;;;;;5089857;28;20169;-70
2023/10/24 12:34:02;;;;;;;3.20;1.40;;;13.20;99.90;;;;;;5091398;28;20176;-59
2023/10/24 12:36:28;;;;;;;3.63;1.60;;;13.10;99.90;;;;;;5091128;28;20517;-58
2023/10/24 12:38:53;;;;;;;1.95;1.73;;;13.20;99.90;;;;;;5091547;28;20166;-59
2023/10/24 12:41:19;;;;;;;1.50;1.38;;;13.30;99.90;;;;;;5090992;28;20253;-60
2023/10/24 12:43:44;;;;;;;2.33;1.63;;;13.30;99.90;;;;;;5091025;28;20169;-66
2023/10/24 12:46:10;;;;;;;3.38;1.60;;;13.20;99.90;;;;;;5091312;28;20625;-65
2023/10/24 12:48:36;;;;;;;1.55;1.45;;;13.30;99.90;;;;;;5090716;28;20692;-72
2023/10/24 12:51:01;;;;;;;1.58;1.30;;;13.20;99.90;;;;;;5091002;28;20172;-64
2023/10/24 12:53:27;;;;;;;2.03;1.80;;;13.10;99.90;;;;;;5090905;28;20158;-61
2023/10/24 12:55:52;;;;;;;2.35;2.03;;;13.10;99.90;;;;;;5093246;28;20165;-70
2023/10/24 12:58:18;;;;;;;4.25;1.40;;;13.10;99.90;;;;;;5094597;28;20173;-61
2023/10/24 13:00:45;;;;;;;1.58;1.40;;;13.10;99.90;;;;;;5094580;28;20205;-49
2023/10/24 13:03:11;;;;;;;3.58;1.15;;;13.00;99.90;;;;;;5094447;28;20157;-47
2023/10/24 13:05:37;;;;;;;1.90;1.10;;;12.90;99.90;;;;;;5094515;28;20169;-49
2023/10/24 13:08:04;;;;;;;2.63;1.48;;;12.80;99.90;;;;;;5094513;28;20255;-48
2023/10/24 13:10:29;;;;;;;2.13;1.45;;;12.80;99.90;;;;;;5094624;28;20176;-49
2023/10/24 13:12:55;;;;;;;1.75;1.40;;;12.80;99.90;;;;;;5094798;28;20165;-48
2023/10/24 13:15:20;;;;;;;2.35;1.40;;;12.80;99.90;;;;;;5094258;28;20644;-49
2023/10/24 13:17:46;;;;;;;1.35;1.10;;;12.90;99.90;;;;;;5094215;28;20561;-48
2023/10/24 13:20:11;;;;;;;1.13;1.00;;;13.00;99.90;;;;;;5094111;28;20188;-48
2023/10/24 13:22:37;;;;;;;1.63;1.23;;;13.10;99.90;;;;;;5092831;28;20562;-48